Time;durP1;ratioP1;P1;durP2;ratioP2;P2;SDS_P1;SDS_P2;PMS_P1;PMS_P2;Temp;Humidity;BMP_temperature;BMP_pressure;BME280_temperature;BME280_humidity;BME280_pressure;Samples;Min_cycle;Max_cycle;Signal;HPM_P1;HPM_P2
2023/06/27 00:00:08;;;;;;;8.00;3.92;;;12.90;99.90;;;;;;5072089;28;20058;-46
2023/06/27 00:02:34;;;;;;;11.60;4.55;;;12.70;99.90;;;;;;5071136;28;20119;-46
2023/06/27 00:05:00;;;;;;;10.27;3.97;;;12.80;99.90;;;;;;5071798;28;20024;-48
2023/06/27 00:07:28;;;;;;;12.93;4.32;;;12.70;99.90;;;;;;5071002;28;20062;-47
2023/06/27 00:09:55;;;;;;;8.40;3.95;;;12.90;99.90;;;;;;5071308;28;20530;-48
2023/06/27 00:12:21;;;;;;;12.00;4.78;;;12.70;99.90;;;;;;5071468;28;20440;-46
2023/06/27 00:14:47;;;;;;;8.00;3.97;;;12.60;99.90;;;;;;5070930;28;21899;-47
2023/06/27 00:17:14;;;;;;;7.75;3.90;;;12.80;99.90;;;;;;5071610;28;20739;-46
2023/06/27 00:19:40;;;;;;;11.43;4.65;;;12.80;99.90;;;;;;5071400;28;20073;-47
2023/06/27 00:22:09;;;;;;;8.55;3.95;;;12.80;99.90;;;;;;5072809;28;20044;-48
2023/06/27 00:24:36;;;;;;;11.60;4.40;;;12.70;99.90;;;;;;5054221;28;20165;-46
2023/06/27 00:27:02;;;;;;;10.88;3.92;;;12.70;99.90;;;;;;5072343;28;20075;-49
2023/06/27 00:29:27;;;;;;;12.48;4.80;;;12.80;99.90;;;;;;5036944;28;20119;-48
2023/06/27 00:31:55;;;;;;;8.95;4.25;;;12.60;99.90;;;;;;5071495;28;20591;-46
2023/06/27 00:34:20;;;;;;;7.68;3.58;;;12.70;99.90;;;;;;5071023;28;20048;-46
2023/06/27 00:36:46;;;;;;;10.23;4.30;;;12.60;99.90;;;;;;5072975;28;20120;-46
2023/06/27 00:39:12;;;;;;;8.52;4.38;;;12.70;99.90;;;;;;5053872;28;20574;-51
2023/06/27 00:41:38;;;;;;;11.32;4.68;;;12.50;99.90;;;;;;5071668;28;20070;-49
2023/06/27 00:44:08;;;;;;;10.20;4.50;;;12.70;99.90;;;;;;5072580;28;20040;-47
2023/06/27 00:46:35;;;;;;;10.65;4.00;;;12.80;99.90;;;;;;5075864;28;20062;-47
2023/06/27 00:49:01;;;;;;;11.65;4.18;;;12.50;99.90;;;;;;5076233;28;20448;-48
2023/06/27 00:51:27;;;;;;;10.25;4.60;;;12.60;99.90;;;;;;5074679;28;20040;-50
2023/06/27 00:53:53;;;;;;;9.77;4.40;;;12.50;99.90;;;;;;5056136;28;20150;-47
2023/06/27 00:56:18;;;;;;;7.47;4.20;;;12.60;99.90;;;;;;5074820;28;20101;-46
2023/06/27 00:58:45;;;;;;;8.68;4.15;;;12.60;99.90;;;;;;5057010;28;20504;-50
2023/06/27 01:01:10;;;;;;;8.75;4.57;;;12.50;99.90;;;;;;5074032;28;20040;-49
2023/06/27 01:03:36;;;;;;;10.20;4.30;;;12.50;99.90;;;;;;5055488;28;20522;-46
2023/06/27 01:06:10;;;;;;;10.32;4.60;;;12.60;99.90;;;;;;5055941;28;20052;-46
2023/06/27 01:08:42;;;;;;;10.23;5.05;;;12.50;99.90;;;;;;5073838;28;20445;-46
2023/06/27 01:11:20;;;;;;;9.40;4.15;;;12.60;99.90;;;;;;5074143;28;20070;-46
2023/06/27 01:13:54;;;;;;;9.98;4.68;;;12.50;99.90;;;;;;5076792;28;20123;-50
2023/06/27 01:16:23;;;;;;;8.20;4.07;;;12.50;99.90;;;;;;5074606;28;20040;-47
2023/06/27 01:18:50;;;;;;;8.70;4.68;;;12.40;99.90;;;;;;5075020;28;20520;-47
2023/06/27 01:21:22;;;;;;;10.15;4.32;;;12.30;99.90;;;;;;5075546;28;20040;-46
2023/06/27 01:23:55;;;;;;;;;;;12.30;99.90;;;;;;5075197;28;20543;-50
2023/06/27 01:26:21;;;;;;;8.68;4.55;;;12.50;99.90;;;;;;5074166;28;20678;-47
2023/06/27 01:28:47;;;;;;;8.80;3.85;;;12.50;99.90;;;;;;5073834;28;20500;-47
2023/06/27 01:31:34;;;;;;;9.52;4.00;;;12.30;99.90;;;;;;5074114;28;20318;-46
2023/06/27 01:34:20;;;;;;;8.80;4.15;;;12.50;99.90;;;;;;5073809;28;20039;-45
2023/06/27 01:37:11;;;;;;;8.63;4.03;;;12.50;99.90;;;;;;5074831;28;20082;-48
2023/06/27 01:39:57;;;;;;;8.65;4.22;;;12.40;99.90;;;;;;5074055;28;20048;-50
2023/06/27 01:42:34;;;;;;;6.55;3.80;;;12.50;99.90;;;;;;5058294;28;20810;-50
2023/06/27 01:45:02;;;;;;;9.88;4.05;;;12.40;99.90;;;;;;5075222;28;20742;-47
2023/06/27 01:47:28;;;;;;;8.68;3.83;;;12.40;99.90;;;;;;5074887;28;20078;-47
2023/06/27 01:49:54;;;;;;;8.05;3.85;;;12.40;99.90;;;;;;5075179;28;20087;-46
2023/06/27 01:52:20;;;;;;;8.25;4.40;;;12.30;99.90;;;;;;5039188;28;20370;-50
2023/06/27 01:54:46;;;;;;;7.90;3.50;;;12.40;99.90;;;;;;5074156;28;20040;-50
2023/06/27 01:57:12;;;;;;;9.93;3.95;;;12.50;99.90;;;;;;5073856;28;20040;-45
2023/06/27 01:59:38;;;;;;;7.60;3.83;;;12.50;99.90;;;;;;5074556;28;20063;-45
2023/06/27 02:02:04;;;;;;;10.48;4.18;;;12.70;99.90;;;;;;5073959;28;20303;-47
2023/06/27 02:04:30;;;;;;;9.98;3.80;;;12.60;99.90;;;;;;5073234;28;20524;-45
2023/06/27 02:06:56;;;;;;;9.48;4.63;;;12.50;99.90;;;;;;5073693;28;20345;-46
2023/06/27 02:09:22;;;;;;;6.35;3.50;;;10.60;99.90;;;;;;5075148;28;20044;-46
2023/06/27 02:11:47;;;;;;;9.77;3.45;;;12.50;99.90;;;;;;5074118;28;20055;-47
2023/06/27 02:14:13;;;;;;;15.05;3.70;;;12.50;99.90;;;;;;5074480;28;20081;-51
2023/06/27 02:16:39;;;;;;;6.97;3.80;;;12.30;99.90;;;;;;5073624;28;20591;-47
2023/06/27 02:19:05;;;;;;;8.57;3.80;;;12.50;99.90;;;;;;5073253;28;20040;-49
2023/06/27 02:21:30;;;;;;;10.27;3.70;;;12.40;99.90;;;;;;5072781;28;20134;-47
2023/06/27 02:23:56;;;;;;;10.75;3.50;;;12.40;99.90;;;;;;5072916;28;20044;-46
2023/06/27 02:26:22;;;;;;;7.80;3.20;;;12.30;99.90;;;;;;5073873;28;20044;-49
2023/06/27 02:28:48;;;;;;;10.15;4.05;;;12.30;99.90;;;;;;5072224;28;20491;-46
2023/06/27 02:31:14;;;;;;;9.52;3.75;;;12.20;99.90;;;;;;5072912;28;20347;-48
2023/06/27 02:33:39;;;;;;;9.43;3.90;;;12.30;99.90;;;;;;5071627;28;20673;-50
2023/06/27 02:36:06;;;;;;;10.32;3.72;;;12.30;99.90;;;;;;5073812;28;20067;-46
2023/06/27 02:38:32;;;;;;;8.48;3.65;;;12.30;99.90;;;;;;5072254;28;20153;-47
2023/06/27 02:40:58;;;;;;;6.10;3.20;;;12.10;99.90;;;;;;5072246;28;20070;-49
2023/06/27 02:43:23;;;;;;;7.25;3.63;;;12.10;99.90;;;;;;5073937;28;20044;-47
2023/06/27 02:45:49;;;;;;;6.95;3.45;;;12.10;99.90;;;;;;5072875;28;20071;-45
2023/06/27 02:48:15;;;;;;;8.88;3.80;;;12.10;99.90;;;;;;5072308;28;20560;-47
2023/06/27 02:50:41;;;;;;;7.55;3.70;;;12.10;99.90;;;;;;5072061;28;20079;-47
2023/06/27 02:53:07;;;;;;;8.25;3.67;;;12.40;99.90;;;;;;5072240;28;20197;-49
2023/06/27 02:55:33;;;;;;;9.25;3.78;;;12.10;99.90;;;;;;5072234;28;20055;-47
2023/06/27 02:57:59;;;;;;;9.23;3.78;;;12.20;99.90;;;;;;5072014;28;20036;-48
2023/06/27 03:00:24;;;;;;;8.10;3.83;;;12.10;99.90;;;;;;5072866;28;20093;-46
2023/06/27 03:02:50;;;;;;;5.60;3.38;;;12.10;99.90;;;;;;5071737;28;20054;-46
2023/06/27 03:05:16;;;;;;;8.38;4.00;;;12.10;99.90;;;;;;5054452;28;20442;-48
2023/06/27 03:07:42;;;;;;;9.07;3.78;;;12.40;99.90;;;;;;5072553;28;20036;-45
2023/06/27 03:10:08;;;;;;;8.60;3.97;;;12.20;99.90;;;;;;5073471;28;20036;-48
2023/06/27 03:12:33;;;;;;;7.03;3.75;;;12.10;99.90;;;;;;5073240;28;20089;-48
2023/06/27 03:15:03;;;;;;;8.70;4.07;;;12.10;99.90;;;;;;5073010;28;20780;-48
2023/06/27 03:17:29;;;;;;;9.68;4.32;;;12.20;99.90;;;;;;5071996;28;20048;-46
2023/06/27 03:19:55;;;;;;;8.65;4.00;;;12.10;99.90;;;;;;5054395;28;20476;-45
2023/06/27 03:22:21;;;;;;;11.98;4.03;;;12.30;99.90;;;;;;5072200;28;20154;-45
2023/06/27 03:24:47;;;;;;;10.30;4.25;;;12.00;99.90;;;;;;5072054;28;20040;-48
2023/06/27 03:27:17;;;;;;;9.38;4.53;;;12.10;99.90;;;;;;5054682;28;20182;-48
2023/06/27 03:29:42;;;;;;;9.98;3.78;;;12.10;99.90;;;;;;5071684;28;20151;-46
2023/06/27 03:32:10;;;;;;;6.53;3.65;;;12.20;99.90;;;;;;5072754;28;20052;-49
2023/06/27 03:34:36;;;;;;;9.40;3.60;;;12.20;99.90;;;;;;5071032;28;20043;-46
2023/06/27 03:37:02;;;;;;;8.48;4.20;;;12.20;99.90;;;;;;5071549;28;20107;-50
2023/06/27 03:39:28;;;;;;;7.35;3.75;;;12.30;99.90;;;;;;5038810;28;20232;-48
2023/06/27 03:41:54;;;;;;;7.65;3.65;;;12.30;99.90;;;;;;5072865;28;20063;-47
2023/06/27 03:44:20;;;;;;;12.25;4.53;;;12.20;99.90;;;;;;5072652;28;20107;-46
2023/06/27 03:46:46;;;;;;;8.57;3.30;;;12.10;99.90;;;;;;5071439;28;20044;-48
2023/06/27 03:49:11;;;;;;;10.13;3.83;;;12.20;99.90;;;;;;5070389;28;20059;-47
2023/06/27 03:51:40;;;;;;;6.25;3.28;;;12.10;99.90;;;;;;5053449;28;20086;-46
2023/06/27 03:54:06;;;;;;;6.95;3.35;;;12.40;99.90;;;;;;5071043;28;20084;-47
2023/06/27 03:56:32;;;;;;;9.63;3.80;;;12.30;99.90;;;;;;5070754;28;20271;-45
2023/06/27 03:58:58;;;;;;;7.57;3.47;;;12.30;99.90;;;;;;5070707;28;20040;-46
2023/06/27 04:01:24;;;;;;;9.30;4.03;;;12.40;99.90;;;;;;5073045;28;20040;-48
2023/06/27 04:03:50;;;;;;;9.40;3.80;;;12.60;99.90;;;;;;5071651;28;20051;-47
2023/06/27 04:06:17;;;;;;;11.40;4.05;;;12.30;99.90;;;;;;5071438;28;20055;-47
2023/06/27 04:08:42;;;;;;;7.18;3.67;;;10.40;99.90;;;;;;5071408;28;20036;-45
2023/06/27 04:11:08;;;;;;;7.03;3.72;;;12.50;99.90;;;;;;5071412;28;20047;-48
2023/06/27 04:13:34;;;;;;;9.88;3.53;;;12.50;99.90;;;;;;5073030;28;20066;-47
2023/06/27 04:15:59;;;;;;;7.25;3.38;;;12.60;99.90;;;;;;5071915;28;20040;-46
2023/06/27 04:18:25;;;;;;;5.85;3.35;;;10.70;99.90;;;;;;5070434;28;20094;-46
2023/06/27 04:20:51;;;;;;;8.20;3.25;;;12.90;99.90;;;;;;5057181;28;21109;-47
2023/06/27 04:23:17;;;;;;;10.48;3.40;;;12.80;99.90;;;;;;5076029;28;20105;-48
2023/06/27 04:25:44;;;;;;;9.48;4.00;;;12.80;99.90;;;;;;5057581;28;20036;-49
2023/06/27 04:28:10;;;;;;;8.50;3.92;;;13.00;99.90;;;;;;5074883;28;20177;-47
2023/06/27 04:30:36;;;;;;;8.80;3.42;;;13.20;99.90;;;;;;5075054;28;20136;-46
2023/06/27 04:33:03;;;;;;;8.98;3.58;;;13.00;99.90;;;;;;5075435;28;20066;-50
2023/06/27 04:35:29;;;;;;;8.60;3.65;;;13.30;99.90;;;;;;5076182;28;20036;-48
2023/06/27 04:37:56;;;;;;;9.13;3.67;;;13.30;99.90;;;;;;5056186;28;20574;-50
2023/06/27 04:40:22;;;;;;;7.72;3.38;;;13.60;99.90;;;;;;5075035;28;20253;-52
2023/06/27 04:42:48;;;;;;;13.18;3.65;;;13.70;99.90;;;;;;5075120;28;20311;-52
2023/06/27 04:45:14;;;;;;;10.95;3.65;;;13.70;99.90;;;;;;5076978;28;20496;-49
2023/06/27 04:47:40;;;;;;;10.85;3.03;;;14.10;99.90;;;;;;5056115;28;20156;-49
2023/06/27 04:50:06;;;;;;;7.90;3.17;;;14.20;99.90;;;;;;5056927;28;20124;-49
2023/06/27 04:52:32;;;;;;;8.55;2.95;;;14.20;99.90;;;;;;5074674;28;20485;-47
2023/06/27 04:54:58;;;;;;;7.40;3.03;;;14.50;99.90;;;;;;5077045;28;20048;-50
2023/06/27 04:57:24;;;;;;;8.32;3.20;;;14.60;99.90;;;;;;5074783;28;20085;-50
2023/06/27 04:59:50;;;;;;;8.55;3.10;;;14.70;99.90;;;;;;5074636;28;20044;-50
2023/06/27 05:02:15;;;;;;;7.97;3.38;;;14.80;99.90;;;;;;5076355;28;20048;-52
2023/06/27 05:04:41;;;;;;;7.68;2.90;;;14.80;99.90;;;;;;5055832;28;20051;-48
2023/06/27 05:07:07;;;;;;;10.30;2.90;;;14.90;99.90;;;;;;5074893;28;20044;-50
2023/06/27 05:09:33;;;;;;;11.30;3.03;;;15.00;99.90;;;;;;5075201;28;20089;-49
2023/06/27 05:11:58;;;;;;;10.75;3.17;;;15.00;99.90;;;;;;5074664;28;20046;-50
2023/06/27 05:14:24;;;;;;;6.72;2.78;;;15.10;99.90;;;;;;5075482;28;20540;-52
2023/06/27 05:16:50;;;;;;;9.10;3.17;;;15.20;99.90;;;;;;5056603;28;20044;-49
2023/06/27 05:19:15;;;;;;;9.25;3.08;;;15.30;99.90;;;;;;5074940;28;20048;-50
2023/06/27 05:21:41;;;;;;;8.80;2.90;;;15.50;99.90;;;;;;5074041;28;20043;-51
2023/06/27 05:24:07;;;;;;;9.90;3.25;;;15.50;99.90;;;;;;5073575;28;20438;-50
2023/06/27 05:26:34;;;;;;;11.32;2.92;;;15.60;99.90;;;;;;5073296;28;20044;-50
2023/06/27 05:29:00;;;;;;;11.90;2.53;;;15.70;99.90;;;;;;5054389;28;20039;-52
2023/06/27 05:31:28;;;;;;;9.15;2.53;;;15.90;99.90;;;;;;5072243;28;20323;-52
2023/06/27 05:33:55;;;;;;;14.25;2.70;;;15.90;99.90;;;;;;5073116;28;20079;-49
2023/06/27 05:36:20;;;;;;;10.98;2.30;;;16.30;99.90;;;;;;5073291;28;20261;-50
2023/06/27 05:38:47;;;;;;;9.88;2.42;;;16.20;99.90;;;;;;5073545;28;20101;-49
2023/06/27 05:41:17;;;;;;;9.85;2.45;;;16.30;99.90;;;;;;5074486;28;20109;-51
2023/06/27 05:43:46;;;;;;;8.20;2.10;;;16.20;99.90;;;;;;5073950;28;20123;-50
2023/06/27 05:46:12;;;;;;;7.88;2.45;;;16.60;99.90;;;;;;5073382;28;20766;-51
2023/06/27 05:48:38;;;;;;;11.25;2.85;;;16.60;99.90;;;;;;5072573;28;20094;-51
2023/06/27 05:51:04;;;;;;;7.15;2.40;;;16.70;99.90;;;;;;5072699;28;20036;-50
2023/06/27 05:53:30;;;;;;;11.82;2.33;;;16.90;99.90;;;;;;5072561;28;20123;-47
2023/06/27 05:55:55;;;;;;;8.93;1.88;;;16.70;99.90;;;;;;5073797;28;20172;-47
2023/06/27 05:58:21;;;;;;;9.88;2.30;;;17.00;99.90;;;;;;5055677;28;20109;-50
2023/06/27 06:00:47;;;;;;;10.18;2.45;;;17.20;99.90;;;;;;5075069;28;20044;-48
2023/06/27 06:03:13;;;;;;;8.57;2.30;;;17.10;99.90;;;;;;5057049;28;20054;-49
2023/06/27 06:05:39;;;;;;;12.45;2.03;;;17.20;99.90;;;;;;5076050;28;20036;-50
2023/06/27 06:08:05;;;;;;;8.13;2.00;;;17.40;99.90;;;;;;5074885;28;20117;-48
2023/06/27 06:10:30;;;;;;;5.70;1.77;;;17.50;99.90;;;;;;5074874;28;20408;-53
2023/06/27 06:12:56;;;;;;;5.97;1.55;;;17.60;99.90;;;;;;5056680;28;20147;-48
2023/06/27 06:15:22;;;;;;;6.93;1.67;;;17.80;99.90;;;;;;5076877;28;20500;-51
2023/06/27 06:17:47;;;;;;;8.30;1.58;;;17.70;99.90;;;;;;5056525;28;20028;-51
2023/06/27 06:20:13;;;;;;;7.95;2.38;;;18.10;99.90;;;;;;5075588;28;20323;-51
2023/06/27 06:22:39;;;;;;;9.65;1.80;;;18.50;99.90;;;;;;5074170;28;20032;-51
2023/06/27 06:25:05;;;;;;;9.95;2.10;;;18.70;99.90;;;;;;5074959;28;20753;-52
2023/06/27 06:27:31;;;;;;;8.05;1.65;;;18.90;99.90;;;;;;5074111;28;20090;-52
2023/06/27 06:29:56;;;;;;;6.13;1.15;;;19.20;99.90;;;;;;5073441;28;20060;-53
2023/06/27 06:32:22;;;;;;;8.43;1.50;;;19.20;99.90;;;;;;5073522;28;20051;-49
2023/06/27 06:34:48;;;;;;;7.60;1.70;;;19.30;99.90;;;;;;5072797;28;20044;-46
2023/06/27 06:37:14;;;;;;;9.55;1.63;;;19.30;99.90;;;;;;5073919;28;20508;-50
2023/06/27 06:39:41;;;;;;;9.23;1.60;;;19.30;99.90;;;;;;5073164;28;20312;-52
2023/06/27 06:42:08;;;;;;;9.02;1.90;;;19.20;99.90;;;;;;5072801;28;20128;-51
2023/06/27 06:44:34;;;;;;;5.85;1.30;;;19.40;99.90;;;;;;5074217;28;20094;-52
2023/06/27 06:46:59;;;;;;;5.65;1.70;;;19.70;99.90;;;;;;5056385;28;20495;-52
2023/06/27 06:49:25;;;;;;;8.68;1.60;;;20.00;99.90;;;;;;5073049;28;20048;-47
2023/06/27 06:51:51;;;;;;;10.52;1.90;;;20.10;99.90;;;;;;5073043;28;20150;-47
2023/06/27 06:54:18;;;;;;;7.70;1.58;;;20.50;99.90;;;;;;5072912;28;20180;-48
2023/06/27 06:56:43;;;;;;;8.60;1.35;;;20.60;99.90;;;;;;5055073;28;20413;-49
2023/06/27 06:59:09;;;;;;;7.68;1.30;;;21.00;99.90;;;;;;5073359;28;20048;-47
2023/06/27 07:01:35;;;;;;;4.75;1.20;;;20.70;99.90;;;;;;5072940;28;20531;-49
2023/06/27 07:04:00;;;;;;;4.47;1.20;;;20.90;99.90;;;;;;5072682;28;20404;-51
2023/06/27 07:06:28;;;;;;;7.05;1.73;;;21.00;99.90;;;;;;5054820;28;20048;-47
2023/06/27 07:08:54;;;;;;;7.80;1.38;;;21.30;99.90;;;;;;5074641;28;20055;-50
2023/06/27 07:11:20;;;;;;;5.18;1.13;;;21.60;99.90;;;;;;5074068;28;20042;-48
2023/06/27 07:13:46;;;;;;;7.20;1.73;;;22.00;99.90;;;;;;5074840;28;20404;-50
2023/06/27 07:16:12;;;;;;;5.50;1.20;;;22.40;99.90;;;;;;5074734;28;20113;-48
2023/06/27 07:18:37;;;;;;;5.43;1.13;;;22.40;99.90;;;;;;5055998;28;20056;-48
2023/06/27 07:21:03;;;;;;;6.18;1.00;;;22.60;99.90;;;;;;5074947;28;20097;-50
2023/06/27 07:23:29;;;;;;;5.70;1.30;;;22.60;99.90;;;;;;5073415;28;20036;-50
2023/06/27 07:25:54;;;;;;;5.75;1.33;;;22.80;99.90;;;;;;5073703;28;20074;-52
2023/06/27 07:28:20;;;;;;;6.55;1.40;;;23.30;99.90;;;;;;5073113;28;20040;-51
2023/06/27 07:30:46;;;;;;;8.85;1.80;;;23.90;99.90;;;;;;5074928;28;20040;-47
2023/06/27 07:33:12;;;;;;;6.53;1.65;;;24.60;99.90;;;;;;5072880;28;20040;-50
2023/06/27 07:35:38;;;;;;;6.43;1.10;;;25.10;99.90;;;;;;5073483;28;20075;-47
2023/06/27 07:38:04;;;;;;;5.40;1.42;;;25.20;99.90;;;;;;5072846;28;20139;-50
2023/06/27 07:40:30;;;;;;;6.38;1.13;;;25.60;99.90;;;;;;5072633;28;20504;-47
2023/06/27 07:42:56;;;;;;;5.30;1.25;;;26.60;99.90;;;;;;5054240;28;20048;-50
2023/06/27 07:45:21;;;;;;;6.88;1.50;;;27.20;99.90;;;;;;5073827;28;20101;-50
2023/06/27 07:47:47;;;;;;;7.28;1.50;;;27.60;99.90;;;;;;5072921;28;20040;-50
2023/06/27 07:50:13;;;;;;;4.60;1.08;;;27.60;99.90;;;;;;5073187;28;20479;-52
2023/06/27 07:52:39;;;;;;;7.65;1.63;;;27.50;99.90;;;;;;5071700;28;20416;-50
2023/06/27 07:55:06;;;;;;;9.88;1.30;;;27.20;99.90;;;;;;5041155;28;20555;-48
2023/06/27 07:57:32;;;;;;;6.05;1.20;;;26.70;99.90;;;;;;5072583;28;20523;-53
2023/06/27 07:59:58;;;;;;;5.78;1.15;;;26.20;99.90;;;;;;5072489;28;20040;-50
2023/06/27 08:02:24;;;;;;;6.90;1.35;;;26.20;99.90;;;;;;5054413;28;20036;-49
2023/06/27 08:04:50;;;;;;;10.55;1.45;;;25.60;99.90;;;;;;5071465;28;20063;-47
2023/06/27 08:07:16;;;;;;;5.85;1.15;;;25.60;99.90;;;;;;5071924;28;20186;-47
2023/06/27 08:09:42;;;;;;;7.60;1.20;;;25.00;99.90;;;;;;5072277;28;20139;-48
2023/06/27 08:12:09;;;;;;;5.63;1.10;;;24.70;99.90;;;;;;5071593;28;20048;-52
2023/06/27 08:14:35;;;;;;;8.90;1.50;;;23.90;99.90;;;;;;5072468;28;20071;-47
2023/06/27 08:17:01;;;;;;;6.00;1.17;;;23.20;99.90;;;;;;5072769;28;20506;-48
2023/06/27 08:19:27;;;;;;;10.82;1.92;;;22.60;99.90;;;;;;5053408;28;20123;-49
2023/06/27 08:21:53;;;;;;;9.00;1.90;;;22.00;99.90;;;;;;5071703;28;20125;-50
2023/06/27 08:24:18;;;;;;;6.35;1.23;;;21.70;99.90;;;;;;5053280;28;20047;-49
2023/06/27 08:26:46;;;;;;;5.25;1.40;;;21.80;99.90;;;;;;5071781;28;20048;-46
2023/06/27 08:29:12;;;;;;;8.40;1.60;;;22.70;99.90;;;;;;5053393;28;20400;-51
2023/06/27 08:31:38;;;;;;;5.03;1.10;;;23.20;99.90;;;;;;5072871;28;20047;-50
2023/06/27 08:34:03;;;;;;;4.85;1.17;;;23.90;99.90;;;;;;5072322;28;20055;-48
2023/06/27 08:36:29;;;;;;;5.95;1.25;;;24.70;99.90;;;;;;5073278;28;20158;-49
2023/06/27 08:38:55;;;;;;;6.95;1.60;;;25.50;99.90;;;;;;5072204;28;20059;-50
2023/06/27 08:41:21;;;;;;;7.22;1.38;;;26.90;99.90;;;;;;5073245;28;20118;-48
2023/06/27 08:43:47;;;;;;;7.55;1.23;;;25.20;99.90;;;;;;5073203;28;20523;-52
2023/06/27 08:46:14;;;;;;;7.22;1.55;;;24.40;99.90;;;;;;5073316;28;20044;-52
2023/06/27 08:48:43;;;;;;;5.90;1.73;;;24.00;99.90;;;;;;5071794;28;20044;-48
2023/06/27 08:51:15;;;;;;;6.80;1.23;;;23.70;99.90;;;;;;5071796;28;20135;-53
2023/06/27 08:53:45;;;;;;;9.23;1.30;;;23.30;99.90;;;;;;5071471;28;20043;-48
2023/06/27 08:56:14;;;;;;;5.90;1.42;;;23.10;99.90;;;;;;5054770;28;20675;-48
2023/06/27 08:58:51;;;;;;;4.85;0.90;;;23.00;99.90;;;;;;5072226;28;20398;-47
2023/06/27 09:01:17;;;;;;;5.93;1.38;;;23.20;99.90;;;;;;5072490;28;20475;-50
2023/06/27 09:03:42;;;;;;;5.28;0.95;;;23.20;99.90;;;;;;5072371;28;20063;-50
2023/06/27 09:06:09;;;;;;;5.70;0.98;;;23.40;99.90;;;;;;5057058;28;20040;-49
2023/06/27 09:08:36;;;;;;;3.05;0.73;;;23.50;99.90;;;;;;5076590;28;20047;-49
2023/06/27 09:11:08;;;;;;;5.97;1.00;;;23.40;99.90;;;;;;5056926;28;20124;-49
2023/06/27 09:13:34;;;;;;;7.18;1.27;;;23.50;99.90;;;;;;5057519;28;20043;-48
2023/06/27 09:16:00;;;;;;;6.25;1.17;;;23.70;99.90;;;;;;5057949;28;20039;-51
2023/06/27 09:18:26;;;;;;;5.43;1.00;;;23.70;99.90;;;;;;5075209;28;20449;-49
2023/06/27 09:20:54;;;;;;;4.78;1.42;;;23.70;99.90;;;;;;5074979;28;20154;-47
2023/06/27 09:23:20;;;;;;;4.72;1.08;;;23.70;99.90;;;;;;5074254;28;20062;-48
2023/06/27 09:26:05;;;;;;;5.68;0.90;;;23.50;99.90;;;;;;5056070;28;20048;-49
2023/06/27 09:28:30;;;;;;;4.43;1.33;;;23.20;99.90;;;;;;5055896;28;20130;-52
2023/06/27 09:30:57;;;;;;;4.32;0.80;;;21.60;99.90;;;;;;5074690;28;20572;-50
2023/06/27 09:33:23;;;;;;;7.57;1.30;;;22.80;99.90;;;;;;5073766;28;20147;-46
2023/06/27 09:35:50;;;;;;;10.18;1.55;;;22.30;99.90;;;;;;5074125;28;20048;-48
2023/06/27 09:38:18;;;;;;;6.70;1.10;;;22.40;99.90;;;;;;5055847;28;20466;-49
2023/06/27 09:40:44;;;;;;;6.45;1.20;;;22.20;99.90;;;;;;5056887;28;20086;-47
2023/06/27 09:43:12;;;;;;;6.13;1.00;;;22.30;99.90;;;;;;5057151;28;20044;-48
2023/06/27 09:45:38;;;;;;;8.00;1.35;;;22.00;99.90;;;;;;5057042;28;20260;-48
2023/06/27 09:48:09;;;;;;;8.57;1.50;;;22.10;99.90;;;;;;5073620;28;20524;-47
2023/06/27 09:50:35;;;;;;;7.03;1.40;;;22.00;99.90;;;;;;5073674;28;20036;-47
2023/06/27 09:53:05;;;;;;;5.53;1.20;;;21.90;99.90;;;;;;5038897;28;20061;-48
2023/06/27 09:55:31;;;;;;;5.93;1.48;;;22.10;99.90;;;;;;5074592;28;20910;-51
2023/06/27 09:57:57;;;;;;;5.45;1.02;;;22.40;99.90;;;;;;5056313;28;20078;-49
2023/06/27 10:00:26;;;;;;;6.03;1.33;;;22.70;99.90;;;;;;5074667;28;20032;-48
2023/06/27 10:02:52;;;;;;;6.85;1.40;;;22.70;99.90;;;;;;5073833;28;20036;-47
2023/06/27 10:05:20;;;;;;;9.15;1.42;;;22.60;99.90;;;;;;5074561;28;20058;-47
2023/06/27 10:07:48;;;;;;;13.77;2.13;;;23.00;99.90;;;;;;5074355;28;20190;-46
2023/06/27 10:10:15;;;;;;;8.73;1.10;;;22.90;99.90;;;;;;5074521;28;20439;-48
2023/06/27 10:12:41;;;;;;;9.82;1.58;;;22.50;99.90;;;;;;5075225;28;20044;-48
2023/06/27 10:15:08;;;;;;;4.57;1.23;;;22.40;99.90;;;;;;5075038;28;20638;-47
2023/06/27 10:17:34;;;;;;;10.05;1.30;;;22.60;99.90;;;;;;5073990;28;20210;-50
2023/06/27 10:20:01;;;;;;;7.28;1.48;;;22.70;99.90;;;;;;5074488;28;20036;-49
2023/06/27 10:22:31;;;;;;;6.43;1.38;;;22.70;99.90;;;;;;5056846;28;20093;-49
2023/06/27 10:25:05;;;;;;;8.57;1.58;;;22.50;99.90;;;;;;5056667;28;20540;-47
2023/06/27 10:27:38;;;;;;;5.25;0.98;;;22.60;99.90;;;;;;5075383;28;20055;-47
2023/06/27 10:30:26;;;;;;;11.02;1.50;;;22.40;99.90;;;;;;5074132;28;20044;-47
2023/06/27 10:33:10;;;;;;;4.70;1.00;;;22.90;99.90;;;;;;5073033;28;20048;-50
2023/06/27 10:35:49;;;;;;;4.35;1.23;;;23.30;99.90;;;;;;5074022;28;20048;-49
2023/06/27 10:38:17;;;;;;;7.18;1.10;;;23.70;99.90;;;;;;5072900;28;20468;-46
2023/06/27 10:41:09;;;;;;;6.63;1.38;;;23.90;99.90;;;;;;5073685;28;20044;-48
2023/06/27 10:43:47;;;;;;;8.70;1.73;;;23.90;99.90;;;;;;5072808;28;20044;-46
2023/06/27 10:46:26;;;;;;;7.97;1.52;;;23.70;99.90;;;;;;5074264;28;20040;-46
2023/06/27 10:49:06;;;;;;;5.30;1.25;;;23.90;99.90;;;;;;5072128;28;20044;-48
2023/06/27 10:51:44;;;;;;;7.28;1.15;;;23.80;99.90;;;;;;5071784;28;20051;-47
2023/06/27 10:54:14;;;;;;;13.50;1.70;;;23.60;99.90;;;;;;5073204;28;20361;-50
2023/06/27 10:56:52;;;;;;;7.10;1.20;;;23.30;99.90;;;;;;5074111;28;20130;-50
2023/06/27 10:59:22;;;;;;;6.78;1.40;;;23.00;99.90;;;;;;5072350;28;20466;-46
2023/06/27 11:02:02;;;;;;;6.78;1.27;;;22.70;99.90;;;;;;5072023;28;20043;-51
2023/06/27 11:04:42;;;;;;;5.35;1.20;;;22.80;99.90;;;;;;5071418;28;20492;-47
2023/06/27 11:07:18;;;;;;;6.53;1.10;;;22.80;99.90;;;;;;5072272;28;20090;-48
2023/06/27 11:09:53;;;;;;;5.70;0.90;;;23.00;99.90;;;;;;5072302;28;20051;-47
2023/06/27 11:12:21;;;;;;;7.07;1.35;;;23.00;99.90;;;;;;5072644;28;20396;-47
2023/06/27 11:14:48;;;;;;;5.10;1.20;;;22.80;99.90;;;;;;5073032;28;20081;-47
2023/06/27 11:17:17;;;;;;;6.75;1.40;;;22.50;99.90;;;;;;5073587;28;20147;-49
2023/06/27 11:19:43;;;;;;;6.22;1.00;;;22.40;99.90;;;;;;5072722;28;20071;-47
2023/06/27 11:22:10;;;;;;;5.65;1.35;;;22.50;99.90;;;;;;5073456;28;24947;-46
2023/06/27 11:24:35;;;;;;;5.22;1.13;;;22.30;99.90;;;;;;5073860;28;20043;-45
2023/06/27 11:27:06;;;;;;;4.75;1.17;;;22.20;99.90;;;;;;5055711;28;20039;-48
2023/06/27 11:29:33;;;;;;;6.10;1.15;;;23.00;99.90;;;;;;5073461;28;20138;-47
2023/06/27 11:31:59;;;;;;;5.28;1.45;;;23.30;99.90;;;;;;5072347;28;20131;-46
2023/06/27 11:34:27;;;;;;;5.53;0.98;;;23.40;99.90;;;;;;5073161;28;20043;-47
2023/06/27 11:36:53;;;;;;;4.93;1.10;;;23.20;99.90;;;;;;5055915;28;20052;-45
2023/06/27 11:39:19;;;;;;;7.75;1.35;;;23.00;99.90;;;;;;5074226;28;20064;-46
2023/06/27 11:41:46;;;;;;;10.73;2.33;;;22.70;99.90;;;;;;5073373;28;20126;-50
2023/06/27 11:44:13;;;;;;;6.28;1.20;;;22.50;99.90;;;;;;5055701;28;20119;-49
2023/06/27 11:46:53;;;;;;;8.15;1.48;;;22.10;99.90;;;;;;5073856;28;20048;-50
2023/06/27 11:49:25;;;;;;;5.55;1.10;;;22.40;99.90;;;;;;5072977;28;20055;-48
2023/06/27 11:51:56;;;;;;;7.55;1.60;;;21.20;99.90;;;;;;5073220;28;20048;-48
2023/06/27 11:54:22;;;;;;;8.38;1.83;;;21.90;99.90;;;;;;5072835;28;20044;-50
2023/06/27 11:56:47;;;;;;;12.18;1.77;;;21.90;99.90;;;;;;5072474;28;20040;-51
2023/06/27 11:59:14;;;;;;;5.53;1.45;;;22.10;99.90;;;;;;5072097;28;20051;-49
2023/06/27 12:01:44;;;;;;;11.45;1.33;;;22.10;99.90;;;;;;5072320;28;20861;-49
2023/06/27 12:04:14;;;;;;;6.93;1.60;;;22.00;99.90;;;;;;5072533;28;20480;-51
2023/06/27 12:06:41;;;;;;;8.15;1.40;;;22.10;99.90;;;;;;5073118;28;20067;-50
2023/06/27 12:09:07;;;;;;;7.57;2.35;;;21.90;99.90;;;;;;5072795;28;20052;-53
2023/06/27 12:11:34;;;;;;;4.97;1.20;;;22.20;99.90;;;;;;5072392;28;20071;-49
2023/06/27 12:14:01;;;;;;;5.95;1.88;;;22.60;99.90;;;;;;5072096;28;20050;-52
2023/06/27 12:16:33;;;;;;;6.82;1.35;;;22.40;99.90;;;;;;5054844;28;20044;-46
2023/06/27 12:19:08;;;;;;;6.57;1.60;;;22.50;99.90;;;;;;5053497;28;20131;-51
2023/06/27 12:21:34;;;;;;;5.03;1.10;;;22.50;99.90;;;;;;5071881;28;20116;-49
2023/06/27 12:24:00;;;;;;;5.75;1.00;;;22.40;99.90;;;;;;5072060;28;20417;-49
2023/06/27 12:26:26;;;;;;;6.45;1.40;;;22.40;99.90;;;;;;5071253;28;20044;-47
2023/06/27 12:29:00;;;;;;;8.85;1.17;;;22.50;99.90;;;;;;5053045;28;20769;-51
2023/06/27 12:31:27;;;;;;;6.93;1.30;;;22.40;99.90;;;;;;5071558;28;20422;-48
2023/06/27 12:33:53;;;;;;;3.72;0.90;;;22.10;99.90;;;;;;5071985;28;20047;-47
2023/06/27 12:36:21;;;;;;;5.32;0.93;;;22.10;99.90;;;;;;5071797;28;20044;-50
2023/06/27 12:38:50;;;;;;;4.20;1.10;;;22.10;99.90;;;;;;5071971;28;20032;-48
2023/06/27 12:41:20;;;;;;;5.25;1.00;;;22.00;99.90;;;;;;5074498;28;20307;-52
2023/06/27 12:43:47;;;;;;;5.35;1.00;;;20.20;99.90;;;;;;5075546;28;20311;-51
2023/06/27 12:46:13;;;;;;;9.40;1.50;;;22.10;99.90;;;;;;5077343;28;20062;-49